GMTA

Cherif Al Idrissi Airport

Al Hoceima, Morocco
METAR GMTA 181600Z 36008KT CAVOK 16/05 Q1027 NOSIG
Observed Flight Rules
Dec-18 @ 16:00 UTC (20 minutes ago) Visual Flight Rules
Wind Visibility Clouds
360° at 8 knots 10,000+ meters
  • Clear skies
Temperatures Readings
Current 16°C / 61°F
Dewpoint 5°C / 41°F
Humidity 48%
Altimeter 30.32" Hg
Pressure 1027 hPa
Elevation 14
METAR GMTA 181600Z 36008KT CAVOK 16/05 Q1027 NOSIG
Observed Flight Rules
Dec-18 @ 16:00 UTC
(20 minutes ago)
VFR
Wind Visibility
360° at 8 knots 10,000+ meters
Clouds
  • Clear skies
Temperature Dewpoint
16°C / 61°F 5°C / 41°F
Humidity Altimeter Pressure
48% 30.32" Hg 1027 hPa